Time;durP1;ratioP1;P1;durP2;ratioP2;P2;SDS_P1;SDS_P2;PMS_P1;PMS_P2;Temp;Humidity;BMP_temperature;BMP_pressure;BME280_temperature;BME280_humidity;BME280_pressure;Samples;Min_cycle;Max_cycle;Signal;HPM_P1;HPM_P2
2021/05/31 00:02:20;;;;;;;8.53;4.73;;;;;;;10.02;57.67;101205.64;128995;1091;24985;-74
2021/05/31 00:04:50;;;;;;;9.90;5.73;;;;;;;9.97;57.77;101200.81;129024;1092;22324;-74
2021/05/31 00:07:20;;;;;;;6.63;4.75;;;;;;;9.90;58.08;101203.19;129019;1092;23103;-74
2021/05/31 00:09:55;;;;;;;8.90;4.48;;;;;;;9.87;58.42;101200.83;129118;1094;22342;-73
2021/05/31 00:12:25;;;;;;;9.63;4.58;;;;;;;9.82;58.32;101207.50;129004;1090;24309;-73
2021/05/31 00:14:55;;;;;;;7.30;4.87;;;;;;;9.78;58.44;101206.13;128622;1096;22463;-73
2021/05/31 00:17:26;;;;;;;9.20;5.93;;;;;;;9.75;58.78;101201.13;128621;1095;22337;-74
2021/05/31 00:19:56;;;;;;;8.93;6.35;;;;;;;9.72;59.15;101206.68;128735;1095;22336;-73
2021/05/31 00:22:26;;;;;;;14.20;6.15;;;;;;;9.70;59.20;101200.73;128685;1095;22493;-73
2021/05/31 00:24:56;;;;;;;10.33;7.30;;;;;;;9.68;59.42;101205.31;128667;1095;22343;-74
2021/05/31 00:27:25;;;;;;;8.13;6.55;;;;;;;9.65;59.47;101194.05;128968;1095;22363;-73
2021/05/31 00:29:55;;;;;;;14.43;6.03;;;;;;;9.62;59.55;101198.78;128944;1095;22414;-74
2021/05/31 00:32:25;;;;;;;14.78;6.83;;;;;;;9.59;59.57;101199.06;128957;1094;22340;-73
2021/05/31 00:34:55;;;;;;;10.78;6.30;;;;;;;9.54;59.78;101193.39;128975;1094;22351;-74
2021/05/31 00:37:24;;;;;;;11.03;6.00;;;;;;;9.49;59.91;101190.32;129018;1092;22339;-74
2021/05/31 00:39:54;;;;;;;8.13;5.98;;;;;;;9.44;60.03;101190.75;128981;1094;22327;-74
2021/05/31 00:42:24;;;;;;;7.38;6.23;;;;;;;9.38;60.16;101181.59;129015;1092;22327;-74
2021/05/31 00:44:53;;;;;;;9.68;6.08;;;;;;;9.34;60.27;101176.74;128998;1094;22354;-74
2021/05/31 00:47:23;;;;;;;9.93;6.43;;;;;;;9.29;60.41;101179.78;128959;1094;23610;-74
2021/05/31 00:49:54;;;;;;;8.80;6.50;;;;;;;9.26;60.67;101181.86;129032;1090;22345;-73
2021/05/31 00:52:24;;;;;;;10.90;6.78;;;;;;;9.25;60.97;101182.84;129043;1092;22378;-74
2021/05/31 00:54:54;;;;;;;9.80;6.68;;;;;;;9.22;61.33;101181.31;128996;1092;22339;-74
2021/05/31 00:57:24;;;;;;;13.55;7.35;;;;;;;9.19;61.33;101178.95;129147;1092;22339;-75
2021/05/31 00:59:53;;;;;;;15.93;8.20;;;;;;;9.16;61.30;101174.81;129006;1092;22357;-75
2021/05/31 01:02:23;;;;;;;18.13;9.50;;;;;;;9.11;61.22;101178.82;129046;1094;22430;-75
2021/05/31 01:04:53;;;;;;;11.30;7.88;;;;;;;9.05;61.11;101182.00;129028;1092;22325;-74
2021/05/31 01:07:45;;;;;;;12.63;8.40;;;;;;;9.00;61.69;101176.30;129108;1092;22344;-74
2021/05/31 01:10:32;;;;;;;17.38;9.33;;;;;;;8.91;61.88;101178.80;129096;1094;22344;-74
2021/05/31 01:13:40;;;;;;;13.78;9.58;;;;;;;8.87;61.92;101173.95;129028;1092;22991;-75
2021/05/31 01:16:22;;;;;;;11.93;8.80;;;;;;;8.82;62.34;101176.14;129014;1090;22331;-74
2021/05/31 01:18:54;;;;;;;15.37;9.90;;;;;;;8.82;62.50;101176.14;129079;1092;24459;-73
2021/05/31 01:21:47;;;;;;;15.50;9.25;;;;;;;8.80;62.42;101173.66;128982;1092;22647;-74
2021/05/31 01:24:51;;;;;;;14.00;8.63;;;;;;;8.77;62.56;101168.66;129093;1092;22354;-73
2021/05/31 01:27:50;;;;;;;14.33;9.50;;;;;;;8.75;62.74;101167.13;128658;1094;24239;-74
2021/05/31 01:30:22;;;;;;;12.55;8.40;;;;;;;8.72;62.93;101166.41;128573;1096;23148;-73
2021/05/31 01:32:55;;;;;;;14.70;9.20;;;;;;;8.72;62.81;101170.84;128273;1099;23148;-75
2021/05/31 01:35:30;;;;;;;14.93;9.53;;;;;;;8.68;62.97;101166.83;128246;1096;22563;-74
2021/05/31 01:38:03;;;;;;;16.03;8.95;;;;;;;8.65;62.91;101161.83;128347;1098;22375;-75
2021/05/31 01:40:34;;;;;;;16.63;9.15;;;;;;;8.63;63.12;101169.02;128316;1099;22362;-72
2021/05/31 01:43:04;;;;;;;15.53;9.78;;;;;;;8.60;63.16;101169.32;128235;1096;24239;-74
2021/05/31 01:45:35;;;;;;;14.43;9.53;;;;;;;8.57;63.24;101161.69;128414;1098;22383;-75
2021/05/31 01:48:09;;;;;;;12.50;8.98;;;;;;;8.53;63.42;101168.16;128573;1095;22370;-74
2021/05/31 01:50:40;;;;;;;15.75;9.23;;;;;;;8.48;63.40;101174.67;128582;1095;24510;-75
2021/05/31 01:53:11;;;;;;;12.35;8.78;;;;;;;8.44;63.40;101168.02;128706;1098;22379;-75
2021/05/31 01:55:44;;;;;;;12.55;7.83;;;;;;;8.42;63.64;101163.84;128696;1095;22428;-74
2021/05/31 01:58:14;;;;;;;9.35;7.83;;;;;;;8.38;63.61;101165.09;128572;1098;22393;-75
2021/05/31 02:00:43;;;;;;;10.60;8.35;;;;;;;8.34;63.72;101164.48;128548;1098;22371;-74
2021/05/31 02:03:13;;;;;;;11.55;8.50;;;;;;;8.33;64.02;101170.73;128555;1095;24488;-74
2021/05/31 02:05:43;;;;;;;8.67;7.27;;;;;;;8.28;63.64;101159.75;128567;1098;23310;-74
2021/05/31 02:08:12;;;;;;;15.55;8.25;;;;;;;8.25;63.88;101165.28;128781;1094;22344;-74
2021/05/31 02:10:42;;;;;;;11.63;8.90;;;;;;;8.23;63.68;101164.56;128976;1091;22327;-74
2021/05/31 02:13:12;;;;;;;10.88;7.90;;;;;;;8.21;64.24;101161.25;128964;1095;22348;-74
2021/05/31 02:16:01;;;;;;;14.43;8.50;;;;;;;8.18;64.01;101156.25;128963;1095;22342;-73
2021/05/31 02:18:55;;;;;;;20.43;8.93;;;;;;;8.13;64.24;101163.70;128961;1091;22333;-74
2021/05/31 02:21:26;;;;;;;11.95;8.40;;;;;;;8.09;64.37;101165.76;128617;1098;22439;-73
2021/05/31 02:23:58;;;;;;;11.08;8.05;;;;;;;8.10;64.56;101175.34;128624;1098;22373;-74
2021/05/31 02:26:28;;;;;;;12.35;8.70;;;;;;;8.10;64.17;101159.55;128567;1098;22360;-72
2021/05/31 02:28:58;;;;;;;10.88;9.03;;;;;;;8.09;64.38;101168.39;128573;1098;22364;-73
2021/05/31 02:31:28;;;;;;;11.28;7.98;;;;;;;8.09;64.76;101160.50;128547;1095;24987;-74
2021/05/31 02:33:58;;;;;;;16.13;9.05;;;;;;;8.09;64.66;101167.56;128552;1098;22367;-74
2021/05/31 02:36:28;;;;;;;12.85;8.93;;;;;;;8.05;64.49;101153.01;128611;1098;22365;-74
2021/05/31 02:38:57;;;;;;;11.85;9.10;;;;;;;7.99;64.51;101149.92;128575;1098;22361;-73
2021/05/31 02:41:28;;;;;;;10.45;8.70;;;;;;;7.96;64.67;101149.35;128573;1098;22337;-74
2021/05/31 02:43:57;;;;;;;23.73;9.93;;;;;;;7.92;64.83;101146.16;128598;1094;24370;-74
2021/05/31 02:46:27;;;;;;;15.03;8.93;;;;;;;7.90;65.29;101150.73;128549;1095;24482;-74
2021/05/31 02:48:57;;;;;;;11.98;8.03;;;;;;;7.90;64.81;101157.80;128573;1095;22353;-74
2021/05/31 02:51:26;;;;;;;12.80;8.28;;;;;;;7.86;65.13;101146.67;128547;1095;22910;-73
2021/05/31 02:53:56;;;;;;;12.35;7.75;;;;;;;7.85;65.21;101152.91;128586;1095;22352;-74
2021/05/31 02:56:26;;;;;;;14.40;9.13;;;;;;;7.84;65.23;101148.63;128621;1095;22417;-74
2021/05/31 02:58:56;;;;;;;13.75;8.88;;;;;;;7.84;65.42;101148.63;128717;1092;22351;-73
2021/05/31 03:01:27;;;;;;;17.03;10.35;;;;;;;7.84;65.46;101147.79;128985;1095;22342;-72
2021/05/31 03:03:57;;;;;;;13.60;8.73;;;;;;;7.83;65.49;101154.85;128949;1092;22336;-73
2021/05/31 03:06:27;;;;;;;12.95;9.63;;;;;;;7.83;65.50;101146.96;128947;1092;24566;-74
2021/05/31 03:08:56;;;;;;;17.05;9.85;;;;;;;7.85;65.82;101152.08;128971;1091;24473;-74
2021/05/31 03:11:26;;;;;;;16.28;10.05;;;;;;;7.87;65.90;101144.91;128992;1092;22763;-74
2021/05/31 03:13:56;;;;;;;14.63;10.28;;;;;;;7.88;65.65;101152.65;129002;1092;24473;-74
2021/05/31 03:16:26;;;;;;;14.18;10.40;;;;;;;7.88;65.91;101146.56;129004;1092;22357;-73
2021/05/31 03:18:55;;;;;;;18.78;10.50;;;;;;;7.89;65.57;101153.48;129004;1094;22799;-74
2021/05/31 03:21:25;;;;;;;17.50;10.23;;;;;;;7.91;66.39;101154.19;128971;1092;22370;-74
2021/05/31 03:23:54;;;;;;;13.40;9.93;;;;;;;7.94;65.91;101152.13;128982;1092;22474;-74
2021/05/31 03:26:24;;;;;;;18.60;10.15;;;;;;;7.98;66.30;101156.16;129011;1092;22330;-74
2021/05/31 03:28:54;;;;;;;17.38;10.50;;;;;;;8.02;66.32;101160.19;128996;1094;22336;-73
2021/05/31 03:31:24;;;;;;;15.13;10.73;;;;;;;8.05;66.19;101160.91;128986;1092;22347;-74
2021/05/31 03:33:53;;;;;;;14.93;9.57;;;;;;;8.07;66.30;101162.45;128991;1095;22336;-73
2021/05/31 03:36:23;;;;;;;11.08;8.95;;;;;;;8.09;66.16;101151.77;129021;1095;22349;-74
2021/05/31 03:38:53;;;;;;;14.53;10.35;;;;;;;8.11;66.45;101144.59;129043;1093;23100;-73
2021/05/31 03:41:23;;;;;;;12.88;9.63;;;;;;;8.14;66.20;101160.12;128981;1094;22325;-74
2021/05/31 03:43:52;;;;;;;14.08;11.75;;;;;;;8.15;66.12;101145.98;129028;1092;22318;-74
2021/05/31 03:46:22;;;;;;;16.78;12.63;;;;;;;8.16;66.09;101150.27;129009;1090;22327;-73
2021/05/31 03:48:52;;;;;;;17.95;13.68;;;;;;;8.18;66.16;101150.98;129123;1090;22310;-75
2021/05/31 03:51:22;;;;;;;15.28;12.90;;;;;;;8.20;66.32;101139.37;129037;1092;22325;-74
2021/05/31 03:53:51;;;;;;;19.23;13.55;;;;;;;8.23;66.16;101148.77;128994;1090;23116;-74
2021/05/31 03:56:22;;;;;;;18.25;12.75;;;;;;;8.27;66.25;101149.38;129002;1091;22332;-74
2021/05/31 03:58:53;;;;;;;17.53;12.53;;;;;;;8.31;66.26;101145.50;129022;1094;22339;-74
2021/05/31 04:01:24;;;;;;;19.95;12.35;;;;;;;8.37;66.44;101144.97;129046;1092;22347;-74
2021/05/31 04:03:53;;;;;;;20.58;12.93;;;;;;;8.44;66.53;101160.12;129047;1094;22348;-74
2021/05/31 04:11:52;;;;;;;16.10;11.23;;;;;;;8.63;66.44;101153.22;129280;1092;22347;-79
2021/05/31 04:14:22;;;;;;;14.88;9.95;;;;;;;8.68;66.43;101151.03;128963;1095;23853;-73
2021/05/31 04:16:55;;;;;;;12.78;10.50;;;;;;;8.76;66.55;101145.06;128990;1092;22391;-73
2021/05/31 04:19:26;;;;;;;14.10;9.83;;;;;;;8.83;66.33;101140.91;129166;1092;22442;-73
2021/05/31 04:21:55;;;;;;;20.70;11.45;;;;;;;8.88;66.36;101139.54;129003;1093;22339;-74
2021/05/31 04:24:26;;;;;;;10.50;8.73;;;;;;;8.99;66.43;101145.65;128920;1094;22345;-74
2021/05/31 04:26:56;;;;;;;14.23;9.43;;;;;;;9.07;66.04;101145.80;128608;1095;22355;-74
2021/05/31 04:29:26;;;;;;;13.50;9.10;;;;;;;9.16;66.46;101144.95;128962;1095;23344;-74
2021/05/31 04:31:55;;;;;;;17.38;11.65;;;;;;;9.27;66.27;101144.83;128558;1098;22788;-74
2021/05/31 04:34:25;;;;;;;25.10;10.03;;;;;;;9.39;66.37;101143.69;128582;1097;22476;-74
2021/05/31 04:36:55;;;;;;;13.35;9.23;;;;;;;9.52;66.38;101135.48;128591;1095;22397;-74
2021/05/31 04:39:24;;;;;;;8.77;7.87;;;;;;;9.68;66.18;101142.81;128612;1098;22437;-74
2021/05/31 04:41:54;;;;;;;14.20;8.50;;;;;;;9.82;66.00;101147.63;128564;1095;24521;-74
2021/05/31 04:44:23;;;;;;;13.60;8.60;;;;;;;9.94;65.40;101147.48;128533;1095;22334;-75
2021/05/31 04:46:53;;;;;;;11.40;9.63;;;;;;;10.04;65.80;101148.27;128556;1095;22386;-74
2021/05/31 04:49:23;;;;;;;12.15;7.90;;;;;;;10.17;65.58;101143.50;128806;1092;22395;-76
2021/05/31 04:51:52;;;;;;;15.28;9.08;;;;;;;10.33;65.75;101145.55;129009;1094;22779;-73
2021/05/31 04:54:22;;;;;;;11.08;7.83;;;;;;;10.51;65.80;101135.01;129014;1095;22338;-74
2021/05/31 04:56:52;;;;;;;12.40;7.80;;;;;;;10.69;65.42;101135.03;128590;1095;22361;-72
2021/05/31 04:59:22;;;;;;;12.53;7.50;;;;;;;10.82;65.02;101125.75;128689;1094;23278;-73
2021/05/31 05:01:52;;;;;;;12.98;8.15;;;;;;;10.97;64.93;101131.36;128694;1094;24948;-73
2021/05/31 05:04:21;;;;;;;13.23;8.65;;;;;;;11.13;64.84;101135.11;128652;1095;22400;-73
2021/05/31 05:06:51;;;;;;;13.15;8.58;;;;;;;11.27;64.51;101137.23;128956;1093;24472;-73
2021/05/31 05:09:21;;;;;;;9.95;7.85;;;;;;;11.46;64.47;101125.63;128962;1093;22357;-73
2021/05/31 05:11:50;;;;;;;13.18;8.70;;;;;;;11.67;64.41;101136.70;128636;1095;22424;-75
2021/05/31 05:14:20;;;;;;;11.00;7.80;;;;;;;11.86;63.64;101132.19;128671;1094;22369;-73
2021/05/31 05:16:49;;;;;;;10.65;8.05;;;;;;;12.03;63.27;101133.96;129024;1092;23110;-74
2021/05/31 05:19:19;;;;;;;8.98;7.93;;;;;;;12.21;63.05;101134.69;129008;1092;22338;-73
2021/05/31 05:21:49;;;;;;;15.73;8.90;;;;;;;12.39;62.40;101145.18;129024;1092;22336;-73
2021/05/31 05:24:19;;;;;;;12.73;7.28;;;;;;;12.56;61.91;101135.49;129014;1092;22628;-75
2021/05/31 05:26:49;;;;;;;12.75;7.68;;;;;;;12.78;61.91;101143.81;129008;1090;22430;-74
2021/05/31 05:29:19;;;;;;;11.48;8.23;;;;;;;13.00;61.54;101140.54;129061;1094;22396;-74
2021/05/31 05:31:49;;;;;;;11.00;7.70;;;;;;;13.25;61.25;101137.92;129100;1094;22342;-74
2021/05/31 05:34:19;;;;;;;9.13;7.30;;;;;;;13.54;61.02;101142.73;129045;1094;22410;-73
2021/05/31 05:47:43;;;;;;;7.73;6.23;;;;;;;14.17;57.46;101141.91;128603;1095;23129;-74
2021/05/31 05:50:20;;;;;;;8.93;6.23;;;;;;;14.13;57.18;101138.77;128591;1095;22363;-73
2021/05/31 05:52:50;;;;;;;8.20;6.75;;;;;;;14.28;57.75;101133.55;128762;1093;25895;-73
2021/05/31 05:55:20;;;;;;;8.83;6.35;;;;;;;14.50;57.24;101139.97;128608;1097;22350;-73
2021/05/31 05:57:50;;;;;;;12.70;7.20;;;;;;;14.67;56.59;101138.04;128618;1095;22566;-77
2021/05/31 06:00:24;;;;;;;18.93;6.50;;;;;;;14.97;56.85;101138.19;128614;1095;22426;-74
2021/05/31 06:02:55;;;;;;;11.53;10.00;;;;;;;15.47;56.50;101148.25;128703;1095;22344;-75
2021/05/31 06:05:25;;;;;;;13.48;7.50;;;;;;;16.03;55.90;101144.38;128711;1095;22378;-73
2021/05/31 06:07:55;;;;;;;13.45;6.65;;;;;;;16.54;54.34;101147.91;128806;1095;22353;-74
2021/05/31 06:10:24;;;;;;;8.75;5.83;;;;;;;16.81;52.41;101151.73;128928;1095;22420;-74
2021/05/31 06:12:54;;;;;;;12.33;5.75;;;;;;;17.05;51.87;101155.86;128653;1095;22337;-73
2021/05/31 06:15:24;;;;;;;8.90;6.30;;;;;;;17.26;50.84;101147.05;129108;1092;22406;-73
2021/05/31 06:17:53;;;;;;;8.47;6.33;;;;;;;17.39;50.04;101160.51;129088;1092;23817;-73
2021/05/31 06:20:24;;;;;;;6.98;5.68;;;;;;;17.49;49.81;101154.80;129037;1090;22359;-73
2021/05/31 06:22:53;;;;;;;8.58;5.28;;;;;;;17.62;49.41;101162.92;129017;1091;22343;-74
2021/05/31 06:25:23;;;;;;;9.38;6.55;;;;;;;17.76;49.50;101160.34;129012;1094;22405;-74
2021/05/31 06:27:53;;;;;;;11.00;6.43;;;;;;;17.97;49.28;101167.52;129044;1092;22832;-74
2021/05/31 06:30:23;;;;;;;8.05;6.10;;;;;;;18.23;48.87;101159.64;129071;1092;22345;-74
2021/05/31 06:32:53;;;;;;;11.28;5.58;;;;;;;18.52;47.93;101150.48;129433;1092;22430;-74
2021/05/31 06:35:24;;;;;;;8.33;5.28;;;;;;;18.86;46.92;101159.49;129033;1092;22346;-73
2021/05/31 06:37:55;;;;;;;6.43;5.38;;;;;;;19.12;46.18;101150.66;129483;1092;22341;-73
2021/05/31 06:40:26;;;;;;;7.40;4.60;;;;;;;19.42;45.97;101143.03;129119;1093;22338;-74
2021/05/31 06:42:59;;;;;;;7.93;4.73;;;;;;;19.78;45.36;101149.02;129167;1092;22329;-74
2021/05/31 06:45:31;;;;;;;7.25;4.40;;;;;;;20.08;44.22;101150.18;129105;1092;22343;-74
2021/05/31 06:48:06;;;;;;;8.60;4.33;;;;;;;20.35;42.65;101150.09;129119;1093;22377;-74
2021/05/31 06:50:37;;;;;;;6.83;4.68;;;;;;;20.57;42.59;101154.16;129512;1092;22369;-78
2021/05/31 06:53:07;;;;;;;6.35;5.13;;;;;;;20.88;42.42;101153.34;129043;1095;22433;-76
2021/05/31 06:55:36;;;;;;;7.93;5.38;;;;;;;21.07;41.47;101140.83;128978;1092;24467;-75
2021/05/31 06:58:06;;;;;;;5.68;4.40;;;;;;;21.32;41.60;101151.58;129472;1092;22891;-74
2021/05/31 07:00:36;;;;;;;6.15;5.05;;;;;;;21.63;41.89;101139.16;129080;1091;22376;-75
2021/05/31 07:03:09;;;;;;;7.03;4.85;;;;;;;21.81;40.82;101141.04;129441;1091;22344;-75
2021/05/31 07:05:38;;;;;;;10.45;5.23;;;;;;;21.80;40.02;101150.16;129022;1095;22339;-74
2021/05/31 07:08:08;;;;;;;9.03;6.00;;;;;;;21.85;40.47;101142.23;129433;1092;22343;-74
2021/05/31 07:10:38;;;;;;;6.73;5.45;;;;;;;22.04;39.56;101143.07;129122;1092;22318;-74
2021/05/31 07:13:08;;;;;;;5.58;4.70;;;;;;;22.09;38.97;101144.05;129135;1090;22328;-73
2021/05/31 07:15:39;;;;;;;8.50;4.90;;;;;;;22.18;39.41;101151.84;129116;1092;22772;-74
2021/05/31 07:18:11;;;;;;;5.33;4.70;;;;;;;22.30;38.64;101145.48;129110;1095;22330;-73
2021/05/31 07:20:41;;;;;;;7.95;4.93;;;;;;;22.38;37.95;101143.52;129098;1093;22426;-73
2021/05/31 07:23:11;;;;;;;7.90;4.65;;;;;;;22.54;38.36;101142.90;129077;1091;24230;-73
2021/05/31 07:25:40;;;;;;;11.00;4.85;;;;;;;22.73;37.76;101149.07;129071;1094;22343;-74
2021/05/31 07:28:10;;;;;;;7.90;5.55;;;;;;;22.93;37.88;101133.47;128962;1095;23992;-73
2021/05/31 07:30:40;;;;;;;6.90;4.43;;;;;;;22.99;37.12;101132.55;128652;1095;22319;-74
2021/05/31 07:33:12;;;;;;;6.55;4.85;;;;;;;23.32;37.38;101135.73;128727;1095;22662;-74
2021/05/31 07:35:42;;;;;;;9.23;6.53;;;;;;;23.63;36.94;101130.02;128672;1095;23197;-74
2021/05/31 07:38:12;;;;;;;10.53;4.80;;;;;;;23.83;35.23;101139.66;128664;1094;22347;-74
2021/05/31 07:40:42;;;;;;;6.23;4.33;;;;;;;23.83;34.74;101137.77;128672;1093;22360;-73
2021/05/31 07:43:12;;;;;;;6.73;3.78;;;;;;;23.73;35.10;101142.13;129175;1093;24221;-74
2021/05/31 07:45:42;;;;;;;6.55;3.98;;;;;;;23.84;34.90;101142.10;129065;1094;22712;-74
2021/05/31 07:48:11;;;;;;;9.48;4.40;;;;;;;23.86;34.50;101134.60;129107;1090;22325;-74
2021/05/31 07:50:41;;;;;;;9.95;5.48;;;;;;;24.03;34.50;101134.69;129053;1092;22321;-75
2021/05/31 07:53:11;;;;;;;5.08;3.93;;;;;;;24.23;34.19;101139.69;129474;1092;23099;-73
2021/05/31 07:55:40;;;;;;;5.33;3.80;;;;;;;24.31;33.00;101142.00;129052;1092;23346;-74
2021/05/31 07:58:11;;;;;;;4.80;3.65;;;;;;;24.29;33.01;101136.03;129495;1090;24466;-74
2021/05/31 08:00:42;;;;;;;4.48;3.00;;;;;;;24.27;32.40;101131.92;129087;1092;22345;-75
2021/05/31 08:03:12;;;;;;;3.55;2.55;;;;;;;24.18;32.08;101134.17;128943;1095;22396;-75
2021/05/31 08:05:42;;;;;;;6.03;2.10;;;;;;;24.15;31.72;101123.84;128972;1095;22343;-74
2021/05/31 08:08:11;;;;;;;6.05;2.53;;;;;;;24.15;30.96;101135.46;128572;1098;22457;-75
2021/05/31 08:10:42;;;;;;;9.93;2.48;;;;;;;24.03;30.30;101123.08;128634;1095;22398;-74
2021/05/31 08:13:11;;;;;;;6.73;2.50;;;;;;;24.06;30.05;101120.72;128723;1095;22352;-73
2021/05/31 08:15:42;;;;;;;3.00;1.98;;;;;;;24.25;30.14;101131.33;128618;1093;22348;-74
2021/05/31 08:18:12;;;;;;;5.35;2.13;;;;;;;24.39;28.78;101125.43;128584;1097;22348;-74
2021/05/31 08:20:42;;;;;;;4.50;1.53;;;;;;;24.36;27.79;101125.91;128577;1095;22699;-74
2021/05/31 08:23:13;;;;;;;4.20;1.63;;;;;;;23.82;27.86;101125.31;129044;1095;22325;-73
2021/05/31 08:25:46;;;;;;;;;;;;;;;23.40;28.29;101119.23;129027;1095;22355;-74
2021/05/31 08:28:16;;;;;;;2.80;1.33;;;;;;;23.22;28.89;101120.14;128930;1095;22992;-74
2021/05/31 08:30:46;;;;;;;2.47;1.80;;;;;;;23.35;28.61;101122.61;128628;1096;22342;-76
2021/05/31 08:33:15;;;;;;;3.38;1.30;;;;;;;23.48;28.12;101116.17;128997;1095;23099;-74
2021/05/31 08:35:46;;;;;;;4.58;1.45;;;;;;;23.64;27.75;101117.34;128628;1093;22338;-72
2021/05/31 08:38:16;;;;;;;2.50;0.98;;;;;;;23.83;27.34;101113.48;128879;1092;22355;-72
2021/05/31 08:40:47;;;;;;;3.08;1.73;;;;;;;23.75;26.82;101110.33;129502;1090;22486;-73
2021/05/31 08:43:18;;;;;;;4.05;2.03;;;;;;;23.80;27.25;101110.45;129031;1092;23903;-78
2021/05/31 08:45:48;;;;;;;4.78;1.40;;;;;;;23.83;27.14;101105.39;129072;1090;24227;-73
2021/05/31 08:48:18;;;;;;;6.60;1.28;;;;;;;23.84;26.52;101101.63;129450;1092;22348;-74
2021/05/31 08:50:48;;;;;;;5.37;1.27;;;;;;;23.78;26.23;101105.27;128981;1093;22358;-74
2021/05/31 08:53:20;;;;;;;6.73;1.60;;;;;;;23.69;25.94;101104.83;129003;1094;22341;-74
2021/05/31 08:55:50;;;;;;;11.27;1.60;;;;;;;23.66;25.88;101105.27;129138;1092;22358;-74
2021/05/31 08:58:19;;;;;;;3.77;1.20;;;;;;;23.77;25.93;101111.73;129069;1090;22325;-75
2021/05/31 09:00:49;;;;;;;3.70;1.03;;;;;;;23.67;25.71;101098.00;129437;1092;22326;-74
2021/05/31 09:03:19;;;;;;;4.00;1.53;;;;;;;23.65;25.79;101110.88;129069;1092;22346;-73
2021/05/31 09:05:49;;;;;;;6.18;1.65;;;;;;;23.70;25.56;101094.86;128947;1095;22393;-74
2021/05/31 09:08:21;;;;;;;4.60;0.80;;;;;;;23.83;25.75;101097.30;128628;1096;22322;-74
2021/05/31 09:10:59;;;;;;;5.00;1.28;;;;;;;23.95;25.59;101095.38;128647;1095;22343;-74
2021/05/31 09:13:38;;;;;;;6.25;1.20;;;;;;;23.80;25.40;101102.36;128978;1095;24463;-75
2021/05/31 09:16:13;;;;;;;4.30;1.40;;;;;;;23.64;25.71;101095.77;128659;1096;22319;-74
2021/05/31 09:18:59;;;;;;;3.25;1.05;;;;;;;23.24;25.60;101109.95;128951;1095;22340;-75
2021/05/31 09:21:33;;;;;;;6.93;1.28;;;;;;;22.58;26.18;101095.61;128941;1094;22360;-73
2021/05/31 09:24:13;;;;;;;3.35;1.40;;;;;;;22.17;27.18;101091.82;129189;1092;22339;-74
2021/05/31 09:26:51;;;;;;;3.80;1.60;;;;;;;22.06;26.88;101090.69;129068;1090;24477;-74
2021/05/31 09:29:21;;;;;;;7.90;1.73;;;;;;;21.80;27.19;101089.13;129061;1092;22393;-73
2021/05/31 09:32:04;;;;;;;5.48;1.28;;;;;;;21.53;27.68;101098.52;129074;1092;22323;-73
2021/05/31 09:34:34;;;;;;;4.48;1.50;;;;;;;21.07;27.85;101086.29;129047;1094;22344;-74
2021/05/31 09:37:05;;;;;;;4.43;1.80;;;;;;;20.75;28.25;101098.91;129029;1090;22318;-74
2021/05/31 09:39:34;;;;;;;5.00;1.60;;;;;;;20.43;28.68;101085.45;129442;1090;22396;-74
2021/05/31 09:42:11;;;;;;;3.20;1.60;;;;;;;20.19;29.67;101089.68;129480;1092;22323;-73
2021/05/31 09:44:53;;;;;;;4.90;1.20;;;;;;;20.01;29.94;101092.24;129527;1092;22332;-72
2021/05/31 09:47:33;;;;;;;5.10;2.20;;;;;;;19.90;30.00;101091.05;129057;1092;22390;-72
2021/05/31 09:50:06;;;;;;;4.75;1.93;;;;;;;19.88;30.85;101087.74;129035;1094;22344;-73
2021/05/31 09:52:37;;;;;;;2.85;1.40;;;;;;;20.04;30.17;101081.91;129120;1094;22338;-74
2021/05/31 09:55:09;;;;;;;7.18;2.48;;;;;;;20.31;31.09;101087.98;129071;1091;22320;-74
2021/05/31 09:57:39;;;;;;;4.55;1.90;;;;;;;20.70;30.86;101083.46;129561;1090;22490;-79
2021/05/31 10:00:17;;;;;;;5.98;1.88;;;;;;;20.79;30.32;101084.00;129127;1092;22345;-74
2021/05/31 10:03:02;;;;;;;7.78;1.83;;;;;;;20.95;30.19;101077.28;129078;1092;22325;-74
2021/05/31 10:10:42;;;;;;;4.00;1.60;;;;;;;20.11;31.07;101077.34;129004;1093;24941;-73
2021/05/31 10:13:12;;;;;;;8.13;2.90;;;;;;;20.36;31.42;101072.08;129049;1095;22335;-72
2021/05/31 10:15:42;;;;;;;4.85;1.68;;;;;;;20.60;30.20;101073.20;128713;1093;24550;-70
2021/05/31 10:18:15;;;;;;;4.58;2.03;;;;;;;20.55;30.27;101073.01;128715;1095;24329;-73
2021/05/31 10:20:47;;;;;;;6.53;2.60;;;;;;;20.64;30.76;101066.34;128713;1093;24483;-76
2021/05/31 10:23:17;;;;;;;4.55;2.18;;;;;;;20.78;31.10;101059.02;128691;1095;22323;-73
2021/05/31 10:25:57;;;;;;;5.58;1.85;;;;;;;20.84;30.54;101063.52;129028;1095;22360;-78
2021/05/31 10:28:36;;;;;;;8.53;2.10;;;;;;;20.86;30.43;101064.14;129196;1092;22325;-75
2021/05/31 10:31:09;;;;;;;2.75;1.30;;;;;;;20.86;29.96;101064.14;129207;1092;22324;-72
2021/05/31 10:33:40;;;;;;;4.03;1.68;;;;;;;20.86;30.39;101053.40;129098;1092;22339;-73
2021/05/31 10:36:20;;;;;;;7.78;1.70;;;;;;;20.88;30.23;101053.16;129146;1092;22345;-74
2021/05/31 10:38:51;;;;;;;17.48;3.08;;;;;;;20.84;30.36;101054.65;129269;1094;22354;-77
2021/05/31 10:41:25;;;;;;;;;;;;;;;20.79;30.07;101044.58;129345;1091;22341;-75
2021/05/31 10:43:57;;;;;;;4.00;1.65;;;;;;;20.72;30.49;101045.64;129162;1094;21246;-75
2021/05/31 10:46:36;;;;;;;4.80;4.00;;;;;;;20.71;29.69;101052.88;129287;1092;22643;-75
2021/05/31 10:49:06;;;;;;;3.85;1.40;;;;;;;20.52;29.55;101049.28;129125;1091;24135;-74
2021/05/31 10:51:41;;;;;;;4.83;1.65;;;;;;;20.36;29.60;101049.76;129149;1092;24459;-73
2021/05/31 10:54:15;;;;;;;2.80;1.37;;;;;;;20.19;29.23;101044.92;129033;1094;22381;-72
2021/05/31 10:56:47;;;;;;;3.83;1.15;;;;;;;20.00;29.26;101037.79;129302;1092;22782;-72
2021/05/31 10:59:22;;;;;;;7.27;1.97;;;;;;;19.83;29.90;101042.81;129143;1092;25006;-72
2021/05/31 11:01:52;;;;;;;2.68;1.10;;;;;;;19.77;30.04;101038.29;129029;1092;22341;-70
2021/05/31 11:04:25;;;;;;;5.33;1.23;;;;;;;19.87;30.06;101037.84;129419;1090;22700;-70
2021/05/31 11:07:01;;;;;;;3.15;0.95;;;;;;;19.91;29.69;101029.15;129047;1094;22323;-71
2021/05/31 11:09:34;;;;;;;2.80;1.00;;;;;;;19.73;28.91;101029.03;129061;1090;24230;-71
2021/05/31 11:12:05;;;;;;;3.03;1.40;;;;;;;19.44;29.46;101039.17;129075;1092;22318;-71
2021/05/31 11:14:43;;;;;;;2.37;1.17;;;;;;;19.23;29.93;101026.84;128995;1092;22791;-71
2021/05/31 11:17:16;;;;;;;1.78;0.90;;;;;;;19.12;30.29;101034.67;129144;1090;22356;-72
2021/05/31 11:19:52;;;;;;;2.45;1.25;;;;;;;19.10;30.55;101031.40;129118;1094;22356;-71
2021/05/31 11:22:29;;;;;;;5.00;1.60;;;;;;;19.16;30.53;101031.39;129124;1092;22375;-72
2021/05/31 11:25:05;;;;;;;3.38;1.60;;;;;;;19.20;30.49;101029.13;128971;1094;22503;-73
2021/05/31 11:27:42;;;;;;;3.08;1.25;;;;;;;19.24;30.01;101025.81;129065;1092;22360;-71
2021/05/31 11:30:17;;;;;;;4.03;1.33;;;;;;;19.31;30.64;101024.98;129041;1092;22336;-73
2021/05/31 11:32:48;;;;;;;2.98;1.00;;;;;;;19.40;30.03;101031.77;129132;1090;24459;-74
2021/05/31 11:35:19;;;;;;;4.60;1.40;;;;;;;19.41;30.06;101036.08;129013;1094;22326;-74
2021/05/31 11:38:07;;;;;;;3.38;1.48;;;;;;;19.42;30.54;101029.69;129157;1092;23246;-74
2021/05/31 11:40:41;;;;;;;3.70;1.80;;;;;;;19.43;30.51;101031.35;129075;1091;24253;-73
2021/05/31 11:43:17;;;;;;;7.18;1.70;;;;;;;19.44;30.33;101028.45;129127;1094;22326;-77
2021/05/31 11:45:47;;;;;;;3.23;1.95;;;;;;;19.41;30.47;101022.69;129121;1094;22366;-75
2021/05/31 11:48:18;;;;;;;3.90;1.88;;;;;;;19.39;30.41;101019.38;129002;1094;22777;-75
2021/05/31 11:50:48;;;;;;;2.35;1.20;;;;;;;19.41;30.29;101017.33;129105;1090;22324;-75
2021/05/31 11:53:18;;;;;;;4.73;1.53;;;;;;;19.47;30.30;101017.31;129015;1092;22342;-75
2021/05/31 11:55:48;;;;;;;3.70;1.95;;;;;;;19.52;29.91;101014.81;129060;1090;23185;-75
2021/05/31 11:58:19;;;;;;;3.93;1.63;;;;;;;19.61;29.60;101006.56;129007;1094;22847;-76
2021/05/31 12:00:50;;;;;;;2.88;1.63;;;;;;;19.67;29.92;101005.75;129104;1090;24459;-76